Check out our new BloomSky Weather System.

Active alerts

Houston, TX
  Details for Houston, TX Dense Fog Advisory


Thunder radar  blitzortung!


Rain radar more information rain snow radar


Visit our other weather sites:

Template documentation
and downloads

And another site



Weather Underground History page Text

Daily Summary for August 21, 2017 Units:  English    Metric   Both
« Previous Day
Next Day »
Daily Weekly Monthly Yearly Custom
  High: Low: Average:
Temperature: 94.5 °F 77.9 °F 85.6 °F
Dew Point: 81.0 °F 72.7 °F 76.9 °F
Humidity: 96 % 50 % 77 %
Wind Speed: 11.0 mph 0.0 mph 1.5 mph
Wind Gust: 13.0 mph - -
Wind:- - SE
Pressure: 30.07 in 29.99 in -
Precipitation: 0.00 in    
Historical Graphs
 
 
Tabular Data for August 21, 2017
Time Temperature Dew Point Pressure Wind Wind Speed Wind Gust Humidity Rainfall Rate (Hourly)
00:01 83.8 °F 76.6 °F 30.02 in Calm   2.0 mph 79 % 0.00 in
00:06 83.7 °F 76.8 °F 30.02 in SSW 1.0 mph 2.0 mph 80 % 0.00 in
00:11 83.3 °F 76.5 °F 30.02 in SSE 1.0 mph 3.0 mph 80 % 0.00 in
00:16 83.1 °F 76.6 °F 30.02 in South 1.0 mph 3.0 mph 81 % 0.00 in
00:21 82.9 °F 76.5 °F 30.02 in South 1.0 mph 4.0 mph 81 % 0.00 in
00:26 82.9 °F 76.5 °F 30.02 in SSE 1.0 mph 4.0 mph 81 % 0.00 in
00:31 82.8 °F 76.6 °F 30.03 in SSE 2.0 mph 4.0 mph 82 % 0.00 in
00:36 82.9 °F 76.8 °F 30.02 in South 2.0 mph 3.0 mph 82 % 0.00 in
00:41 82.9 °F 76.5 °F 30.03 in Calm   2.0 mph 81 % 0.00 in
00:46 82.8 °F 76.6 °F 30.03 in SSE 1.0 mph 3.0 mph 82 % 0.00 in
00:51 82.8 °F 76.6 °F 30.03 in Calm   3.0 mph 82 % 0.00 in
00:56 82.6 °F 76.5 °F 30.03 in Calm   3.0 mph 82 % 0.00 in
01:01 82.2 °F 76.1 °F 30.03 in Calm   2.0 mph 82 % 0.00 in
01:06 82.0 °F 76.3 °F 30.03 in Calm   1.0 mph 83 % 0.00 in
01:11 81.7 °F 75.9 °F 30.03 in Calm     83 % 0.00 in
01:16 81.5 °F 75.9 °F 30.03 in Calm     83 % 0.00 in
01:21 81.3 °F 75.7 °F 30.03 in Calm     83 % 0.00 in
01:26 81.0 °F 75.7 °F 30.03 in Calm     84 % 0.00 in
01:31 81.0 °F 76.1 °F 30.03 in Calm     85 % 0.00 in
01:36 80.8 °F 75.9 °F 30.03 in Calm     85 % 0.00 in
01:41 80.8 °F 76.3 °F 30.03 in Calm     86 % 0.00 in
01:46 80.8 °F 75.9 °F 30.03 in Calm     85 % 0.00 in
01:51 80.8 °F 76.3 °F 30.03 in Calm     86 % 0.00 in
01:57 80.8 °F 76.3 °F 30.03 in Calm     86 % 0.00 in
02:02 80.8 °F 76.3 °F 30.02 in Calm     86 % 0.00 in
02:07 80.6 °F 76.1 °F 30.02 in Calm     86 % 0.00 in
02:12 80.2 °F 75.7 °F 30.02 in Calm     86 % 0.00 in
02:17 80.2 °F 76.1 °F 30.02 in Calm     87 % 0.00 in
02:22 80.1 °F 75.9 °F 30.03 in Calm     87 % 0.00 in
02:27 79.9 °F 75.9 °F 30.03 in Calm     88 % 0.00 in
02:32 79.9 °F 75.9 °F 30.03 in Calm     88 % 0.00 in
02:37 79.9 °F 75.9 °F 30.03 in Calm     88 % 0.00 in
02:42 79.9 °F 75.9 °F 30.02 in Calm     88 % 0.00 in
02:47 79.9 °F 75.9 °F 30.03 in Calm     88 % 0.00 in
02:52 79.7 °F 76.1 °F 30.03 in Calm     89 % 0.00 in
02:57 79.5 °F 75.9 °F 30.03 in Calm     89 % 0.00 in
03:02 79.5 °F 75.9 °F 30.03 in Calm     89 % 0.00 in
03:07 79.5 °F 75.9 °F 30.03 in Calm     89 % 0.00 in
03:12 79.3 °F 75.7 °F 30.03 in Calm     89 % 0.00 in
03:17 79.3 °F 75.7 °F 30.03 in Calm     89 % 0.00 in
03:22 79.2 °F 75.9 °F 30.02 in Calm     90 % 0.00 in
03:27 79.2 °F 75.9 °F 30.02 in Calm     90 % 0.00 in
03:32 79.0 °F 75.7 °F 30.02 in Calm     90 % 0.00 in
03:37 78.8 °F 75.6 °F 30.02 in Calm     90 % 0.00 in
03:42 79.0 °F 76.1 °F 30.03 in Calm     91 % 0.00 in
03:43 79.0 °F 76.1 °F 30.03 in Calm     91 % 0.00 in
03:48 79.0 °F 76.1 °F 30.03 in Calm     91 % 0.00 in
03:53 79.0 °F 76.1 °F 30.02 in Calm     91 % 0.00 in
03:58 79.0 °F 76.1 °F 30.02 in Calm     91 % 0.00 in
04:03 78.8 °F 75.9 °F 30.02 in Calm     91 % 0.00 in
04:08 78.6 °F 75.7 °F 30.02 in Calm     91 % 0.00 in
04:13 78.4 °F 75.6 °F 30.02 in Calm     91 % 0.00 in
04:18 78.4 °F 75.9 °F 30.02 in Calm     92 % 0.00 in
04:23 78.4 °F 75.9 °F 30.02 in Calm     92 % 0.00 in
04:29 78.4 °F 75.9 °F 30.02 in Calm     92 % 0.00 in
04:34 78.3 °F 75.7 °F 30.02 in Calm     92 % 0.00 in
04:39 78.3 °F 75.7 °F 30.02 in Calm     92 % 0.00 in
04:44 78.1 °F 75.9 °F 30.02 in Calm     93 % 0.00 in
04:49 78.1 °F 75.9 °F 30.02 in Calm     93 % 0.00 in
04:54 78.1 °F 75.9 °F 30.03 in Calm     93 % 0.00 in
04:59 77.9 °F 75.7 °F 30.03 in Calm     93 % 0.00 in
05:00 77.9 °F 75.7 °F 30.03 in Calm     93 % 0.00 in
05:05 77.9 °F 75.7 °F 30.03 in Calm     93 % 0.00 in
05:10 77.9 °F 75.7 °F 30.03 in Calm     93 % 0.00 in
05:15 78.1 °F 76.3 °F 30.03 in Calm     94 % 0.00 in
05:20 78.1 °F 76.3 °F 30.03 in Calm     94 % 0.00 in
05:25 78.1 °F 76.3 °F 30.03 in Calm     94 % 0.00 in
05:31 78.1 °F 76.3 °F 30.03 in Calm     94 % 0.00 in
05:36 78.1 °F 76.3 °F 30.03 in Calm     94 % 0.00 in
05:41 78.1 °F 76.3 °F 30.03 in Calm     94 % 0.00 in
05:46 78.1 °F 76.3 °F 30.03 in Calm     94 % 0.00 in
05:51 78.1 °F 76.3 °F 30.03 in Calm     94 % 0.00 in
05:56 78.1 °F 76.5 °F 30.03 in Calm     95 % 0.00 in
06:01 78.1 °F 76.5 °F 30.03 in Calm     95 % 0.00 in
06:06 78.3 °F 76.6 °F 30.03 in Calm     95 % 0.00 in
06:11 78.3 °F 76.6 °F 30.03 in Calm     95 % 0.00 in
06:16 78.3 °F 76.6 °F 30.03 in Calm     95 % 0.00 in
06:21 78.3 °F 76.6 °F 30.03 in Calm     95 % 0.00 in
06:26 78.3 °F 76.6 °F 30.03 in Calm     95 % 0.00 in
06:31 78.3 °F 76.6 °F 30.03 in Calm     95 % 0.00 in
06:36 78.3 °F 76.6 °F 30.02 in Calm     95 % 0.00 in
06:41 78.3 °F 76.6 °F 30.02 in Calm     95 % 0.00 in
06:46 78.3 °F 76.6 °F 30.03 in Calm   1.0 mph 95 % 0.00 in
06:51 78.3 °F 77.0 °F 30.03 in Calm   1.0 mph 96 % 0.00 in
06:56 78.3 °F 77.0 °F 30.03 in Calm   1.0 mph 96 % 0.00 in
07:01 78.3 °F 77.0 °F 30.03 in Calm     96 % 0.00 in
07:06 78.3 °F 77.0 °F 30.03 in Calm     96 % 0.00 in
07:11 78.3 °F 77.0 °F 30.03 in Calm   1.0 mph 96 % 0.00 in
07:16 78.3 °F 77.0 °F 30.03 in Calm   1.0 mph 96 % 0.00 in
07:21 78.3 °F 77.0 °F 30.03 in Calm   1.0 mph 96 % 0.00 in
07:26 78.4 °F 77.2 °F 30.03 in Calm   1.0 mph 96 % 0.00 in
07:31 78.6 °F 77.4 °F 30.04 in Calm   1.0 mph 96 % 0.00 in
07:36 78.6 °F 77.4 °F 30.03 in North 1.0 mph 1.0 mph 96 % 0.00 in
07:41 79.0 °F 77.7 °F 30.03 in Calm   1.0 mph 96 % 0.00 in
07:46 79.3 °F 78.1 °F 30.04 in Calm   1.0 mph 96 % 0.00 in
07:51 79.9 °F 78.6 °F 30.04 in Calm   2.0 mph 96 % 0.00 in
07:56 80.4 °F 78.8 °F 30.04 in Calm   2.0 mph 95 % 0.00 in
08:01 81.0 °F 79.0 °F 30.04 in ENE 3.0 mph 3.0 mph 94 % 0.00 in
08:06 81.3 °F 79.2 °F 30.04 in Calm   4.0 mph 93 % 0.00 in
08:10 81.7 °F 79.5 °F 30.04 in Calm   4.0 mph 93 % 0.00 in
08:15 82.2 °F 79.7 °F 30.04 in NNE 1.0 mph 4.0 mph 92 % 0.00 in
08:20 82.6 °F 79.3 °F 30.04 in NNW 1.0 mph 4.0 mph 90 % 0.00 in
08:25 82.8 °F 79.5 °F 30.04 in East 1.0 mph 3.0 mph 90 % 0.00 in
08:30 82.9 °F 79.3 °F 30.04 in Calm   4.0 mph 89 % 0.00 in
08:35 83.3 °F 79.7 °F 30.04 in Calm   4.0 mph 89 % 0.00 in
08:40 83.7 °F 79.7 °F 30.04 in ENE 1.0 mph 4.0 mph 88 % 0.00 in
08:45 83.8 °F 79.5 °F 30.05 in NNW 1.0 mph 3.0 mph 87 % 0.00 in
08:50 83.8 °F 79.5 °F 30.05 in NNW 1.0 mph 2.0 mph 87 % 0.00 in
08:55 83.7 °F 79.3 °F 30.05 in Calm   2.0 mph 87 % 0.00 in
09:00 83.8 °F 79.9 °F 30.05 in Calm   3.0 mph 88 % 0.00 in
09:05 84.4 °F 80.4 °F 30.05 in NNW 1.0 mph 3.0 mph 88 % 0.00 in
09:10 85.3 °F 81.0 °F 30.05 in East 2.0 mph 3.0 mph 87 % 0.00 in
09:15 86.4 °F 81.0 °F 30.05 in Calm   3.0 mph 84 % 0.00 in
09:20 87.3 °F 80.8 °F 30.05 in East 2.0 mph 3.0 mph 81 % 0.00 in
09:25 87.4 °F 80.4 °F 30.05 in ENE 2.0 mph 3.0 mph 80 % 0.00 in
09:30 88.0 °F 80.6 °F 30.06 in ENE 2.0 mph 4.0 mph 79 % 0.00 in
09:35 88.3 °F 80.6 °F 30.06 in ENE 2.0 mph 4.0 mph 78 % 0.00 in
09:40 88.9 °F 80.2 °F 30.05 in NE 4.0 mph 4.0 mph 76 % 0.00 in
09:45 89.1 °F 80.4 °F 30.05 in Calm   4.0 mph 76 % 0.00 in
09:50 89.1 °F 79.3 °F 30.05 in SE 5.0 mph 5.0 mph 73 % 0.00 in
09:55 88.5 °F 79.5 °F 30.05 in NW 2.0 mph 7.0 mph 75 % 0.00 in
10:00 88.2 °F 79.7 °F 30.05 in Calm   7.0 mph 76 % 0.00 in
10:05 88.5 °F 80.1 °F 30.06 in ESE 1.0 mph 7.0 mph 76 % 0.00 in
10:10 88.9 °F 79.9 °F 30.06 in South 1.0 mph 5.0 mph 75 % 0.00 in
10:15 89.4 °F 80.1 °F 30.05 in SE 2.0 mph 5.0 mph 74 % 0.00 in
10:20 89.2 °F 79.5 °F 30.06 in East 3.0 mph 5.0 mph 73 % 0.00 in
10:25 88.9 °F 79.5 °F 30.06 in SSW 1.0 mph 5.0 mph 74 % 0.00 in
10:30 89.2 °F 80.6 °F 30.06 in SE 1.0 mph 5.0 mph 76 % 0.00 in
10:35 89.4 °F 79.7 °F 30.06 in SE 3.0 mph 7.0 mph 73 % 0.00 in
10:40 89.1 °F 79.3 °F 30.06 in South 1.0 mph 7.0 mph 73 % 0.00 in
10:45 89.1 °F 79.3 °F 30.06 in ESE 1.0 mph 7.0 mph 73 % 0.00 in
10:50 89.1 °F 79.7 °F 30.06 in Calm   5.0 mph 74 % 0.00 in
10:55 89.4 °F 79.2 °F 30.06 in SSE 6.0 mph 6.0 mph 72 % 0.00 in
11:00 90.1 °F 79.0 °F 30.06 in NNW 2.0 mph 6.0 mph 70 % 0.00 in
11:05 90.3 °F 79.2 °F 30.06 in ESE 5.0 mph 6.0 mph 70 % 0.00 in
11:10 90.7 °F 79.2 °F 30.06 in ESE 5.0 mph 7.0 mph 69 % 0.00 in
11:16 90.9 °F 78.4 °F 30.06 in ESE 9.0 mph 9.0 mph 67 % 0.00 in
11:21 90.9 °F 78.4 °F 30.06 in ESE 2.0 mph 9.0 mph 67 % 0.00 in
11:26 91.0 °F 78.1 °F 30.06 in SSE 2.0 mph 9.0 mph 66 % 0.00 in
11:31 91.2 °F 78.8 °F 30.06 in Calm   9.0 mph 67 % 0.00 in
11:36 91.0 °F 79.0 °F 30.05 in Calm   6.0 mph 68 % 0.00 in
11:41 91.0 °F 78.6 °F 30.06 in SE 5.0 mph 6.0 mph 67 % 0.00 in
11:46 91.2 °F 77.7 °F 30.05 in Calm   7.0 mph 65 % 0.00 in
11:51 91.6 °F 77.7 °F 30.05 in SE 1.0 mph 7.0 mph 64 % 0.00 in
11:56 91.8 °F 77.9 °F 30.05 in ESE 4.0 mph 7.0 mph 64 % 0.00 in
12:01 91.9 °F 77.5 °F 30.05 in NE 3.0 mph 5.0 mph 63 % 0.00 in
12:06 91.2 °F 77.4 °F 30.05 in South 3.0 mph 5.0 mph 64 % 0.00 in
12:07 91.0 °F 77.5 °F 30.05 in ENE 2.0 mph 5.0 mph 65 % 0.00 in
12:12 90.9 °F 78.4 °F 30.05 in SSE 2.0 mph 6.0 mph 67 % 0.00 in
12:17 91.0 °F 77.2 °F 30.05 in SE 5.0 mph 7.0 mph 64 % 0.00 in
12:22 91.6 °F 77.7 °F 30.05 in SE 2.0 mph 10.0 mph 64 % 0.00 in
12:27 91.6 °F 77.7 °F 30.05 in SE 3.0 mph 10.0 mph 64 % 0.00 in
12:32 91.9 °F 77.5 °F 30.05 in ENE 5.0 mph 10.0 mph 63 % 0.00 in
12:37 91.4 °F 76.5 °F 30.04 in NW 1.0 mph 7.0 mph 62 % 0.00 in
12:42 91.2 °F 76.8 °F 30.04 in SSE 3.0 mph 7.0 mph 63 % 0.00 in
12:47 91.2 °F 76.8 °F 30.04 in South 4.0 mph 7.0 mph 63 % 0.00 in
12:52 91.0 °F 76.6 °F 30.04 in Calm   7.0 mph 63 % 0.00 in
12:57 91.0 °F 76.6 °F 30.04 in NW 4.0 mph 7.0 mph 63 % 0.00 in
13:02 90.7 °F 76.3 °F 30.04 in SE 1.0 mph 7.0 mph 63 % 0.00 in
13:07 90.7 °F 76.8 °F 30.04 in ENE 2.0 mph 7.0 mph 64 % 0.00 in
13:12 90.7 °F 76.3 °F 30.04 in East 3.0 mph 7.0 mph 63 % 0.00 in
13:17 90.3 °F 75.9 °F 30.04 in ENE 2.0 mph 7.0 mph 63 % 0.00 in
13:22 90.1 °F 76.3 °F 30.04 in SE 4.0 mph 7.0 mph 64 % 0.00 in
13:27 90.3 °F 76.5 °F 30.03 in ESE 3.0 mph 7.0 mph 64 % 0.00 in
13:32 90.3 °F 76.5 °F 30.03 in Calm   7.0 mph 64 % 0.00 in
13:37 90.3 °F 77.0 °F 30.03 in ENE 3.0 mph 6.0 mph 65 % 0.00 in
13:42 90.3 °F 77.4 °F 30.03 in ENE 3.0 mph 5.0 mph 66 % 0.00 in
13:47 90.3 °F 76.5 °F 30.03 in East 4.0 mph 6.0 mph 64 % 0.00 in
13:52 90.1 °F 77.2 °F 30.03 in ESE 2.0 mph 8.0 mph 66 % 0.00 in
13:57 90.3 °F 77.4 °F 30.03 in ESE 3.0 mph 8.0 mph 66 % 0.00 in
14:02 90.9 °F 77.0 °F 30.03 in NNE 5.0 mph 8.0 mph 64 % 0.00 in
14:07 91.2 °F 76.3 °F 30.03 in NE 3.0 mph 8.0 mph 62 % 0.00 in
14:12 91.0 °F 76.3 °F 30.03 in SE 1.0 mph 8.0 mph 62 % 0.00 in
14:17 90.9 °F 75.6 °F 30.03 in ESE 2.0 mph 8.0 mph 61 % 0.00 in
14:22 90.7 °F 76.3 °F 30.03 in NE 1.0 mph 8.0 mph 63 % 0.00 in
14:27 90.9 °F 77.0 °F 30.03 in SE 1.0 mph 7.0 mph 64 % 0.00 in
14:33 91.8 °F 76.5 °F 30.03 in Calm   7.0 mph 61 % 0.00 in
14:38 91.9 °F 77.0 °F 30.02 in ENE 3.0 mph 7.0 mph 62 % 0.00 in
14:43 92.5 °F 77.5 °F 30.02 in ENE 1.0 mph 8.0 mph 62 % 0.00 in
14:48 93.0 °F 77.0 °F 30.02 in SE 3.0 mph 8.0 mph 60 % 0.00 in
14:53 93.4 °F 76.5 °F 30.02 in ESE 1.0 mph 9.0 mph 58 % 0.00 in
14:58 93.9 °F 76.3 °F 30.02 in SE 6.0 mph 9.0 mph 57 % 0.00 in
15:03 93.9 °F 75.2 °F 30.01 in SE 4.0 mph 12.0 mph 55 % 0.00 in
15:08 93.9 °F 76.3 °F 30.01 in Calm   12.0 mph 57 % 0.00 in
15:13 94.5 °F 74.7 °F 30.01 in ESE 11.0 mph 12.0 mph 53 % 0.00 in
15:18 94.1 °F 75.4 °F 30.01 in SSW 6.0 mph 11.0 mph 55 % 0.00 in
15:23 94.1 °F 74.3 °F 30.01 in ESE 7.0 mph 11.0 mph 53 % 0.00 in
15:28 93.6 °F 75.0 °F 30.01 in ESE 2.0 mph 11.0 mph 55 % 0.00 in
15:33 94.1 °F 72.7 °F 30.01 in SSE 3.0 mph 10.0 mph 50 % 0.00 in
15:38 94.3 °F 74.5 °F 30.00 in ESE 4.0 mph 10.0 mph 53 % 0.00 in
15:43 94.1 °F 74.3 °F 30.01 in SE 1.0 mph 9.0 mph 53 % 0.00 in
15:44 94.1 °F 74.3 °F 30.00 in SE 5.0 mph 9.0 mph 53 % 0.00 in
15:49 93.7 °F 74.7 °F 30.00 in Calm   9.0 mph 54 % 0.00 in
15:54 93.6 °F 73.8 °F 30.00 in NNE 1.0 mph 9.0 mph 53 % 0.00 in
15:59 93.7 °F 74.7 °F 30.00 in East 7.0 mph 8.0 mph 54 % 0.00 in
16:04 93.6 °F 75.6 °F 30.00 in East 7.0 mph 9.0 mph 56 % 0.00 in
16:09 93.7 °F 75.7 °F 30.00 in SSW 1.0 mph 9.0 mph 56 % 0.00 in
16:14 93.9 °F 75.2 °F 29.99 in NE 1.0 mph 9.0 mph 55 % 0.00 in
16:19 94.3 °F 76.1 °F 30.00 in SE 5.0 mph 8.0 mph 56 % 0.00 in
16:24 93.9 °F 75.2 °F 29.99 in SSE 4.0 mph 8.0 mph 55 % 0.00 in
16:29 93.4 °F 74.8 °F 30.00 in SE 4.0 mph 8.0 mph 55 % 0.00 in
16:34 93.9 °F 74.7 °F 30.00 in East 2.0 mph 8.0 mph 54 % 0.00 in
16:39 94.1 °F 74.8 °F 29.99 in SSE 4.0 mph 8.0 mph 54 % 0.00 in
16:44 94.3 °F 75.0 °F 29.99 in SE 4.0 mph 8.0 mph 54 % 0.00 in
16:49 93.7 °F 75.2 °F 29.99 in ENE 2.0 mph 8.0 mph 55 % 0.00 in
16:54 93.9 °F 75.7 °F 29.99 in ESE 3.0 mph 8.0 mph 56 % 0.00 in
16:56 93.9 °F 75.2 °F 29.99 in SSE 4.0 mph 9.0 mph 55 % 0.00 in
17:01 94.5 °F 75.7 °F 29.99 in SE 3.0 mph 9.0 mph 55 % 0.00 in
17:06 94.5 °F 75.2 °F 29.99 in SE 3.0 mph 9.0 mph 54 % 0.00 in
17:11 93.9 °F 75.7 °F 29.99 in East 3.0 mph 10.0 mph 56 % 0.00 in
17:16 93.4 °F 77.4 °F 29.99 in East 4.0 mph 10.0 mph 60 % 0.00 in
17:21 93.0 °F 77.0 °F 30.00 in ENE 6.0 mph 10.0 mph 60 % 0.00 in
17:27 92.5 °F 77.5 °F 30.00 in ENE 2.0 mph 9.0 mph 62 % 0.00 in
17:32 92.3 °F 77.9 °F 29.99 in ESE 3.0 mph 9.0 mph 63 % 0.00 in
17:37 92.8 °F 77.4 °F 29.99 in SE 2.0 mph 9.0 mph 61 % 0.00 in
17:42 93.0 °F 77.5 °F 30.00 in NW 1.0 mph 8.0 mph 61 % 0.00 in
17:47 93.0 °F 77.5 °F 29.99 in ENE 4.0 mph 8.0 mph 61 % 0.00 in
17:52 93.6 °F 77.5 °F 29.99 in NE 1.0 mph 9.0 mph 60 % 0.00 in
17:54 93.9 °F 77.9 °F 29.99 in East 5.0 mph 9.0 mph 60 % 0.00 in
17:59 93.6 °F 78.1 °F 29.99 in East 2.0 mph 9.0 mph 61 % 0.00 in
18:04 93.0 °F 78.1 °F 29.99 in WNW 2.0 mph 9.0 mph 62 % 0.00 in
18:09 92.3 °F 77.9 °F 29.99 in ENE 5.0 mph 8.0 mph 63 % 0.00 in
18:14 91.4 °F 77.5 °F 30.00 in NW 2.0 mph 8.0 mph 64 % 0.00 in
18:19 90.7 °F 77.7 °F 30.00 in East 1.0 mph 13.0 mph 66 % 0.00 in
18:24 90.7 °F 77.7 °F 30.00 in West 1.0 mph 13.0 mph 66 % 0.00 in
18:29 91.0 °F 78.1 °F 30.00 in ESE 2.0 mph 13.0 mph 66 % 0.00 in
18:34 90.9 °F 77.5 °F 29.99 in NE 5.0 mph 10.0 mph 65 % 0.00 in
18:39 90.7 °F 77.7 °F 29.99 in ENE 6.0 mph 12.0 mph 66 % 0.00 in
18:44 90.7 °F 77.7 °F 29.99 in ESE 1.0 mph 12.0 mph 66 % 0.00 in
18:49 90.3 °F 77.4 °F 29.99 in SSE 3.0 mph 12.0 mph 66 % 0.00 in
18:54 90.3 °F 77.4 °F 30.00 in East 4.0 mph 10.0 mph 66 % 0.00 in
18:59 90.1 °F 77.2 °F 30.00 in ESE 6.0 mph 10.0 mph 66 % 0.00 in
19:04 90.0 °F 77.0 °F 30.00 in SE 8.0 mph 10.0 mph 66 % 0.00 in
19:09 89.2 °F 76.8 °F 30.00 in SE 4.0 mph 10.0 mph 67 % 0.00 in
19:14 88.9 °F 76.5 °F 30.00 in NE 7.0 mph 10.0 mph 67 % 0.00 in
19:19 88.3 °F 76.5 °F 30.00 in SE 2.0 mph 10.0 mph 68 % 0.00 in
19:24 88.0 °F 76.5 °F 30.00 in ESE 5.0 mph 10.0 mph 69 % 0.00 in
19:29 87.4 °F 76.5 °F 30.00 in East 1.0 mph 10.0 mph 70 % 0.00 in
19:34 87.1 °F 76.5 °F 30.01 in SE 2.0 mph 10.0 mph 71 % 0.00 in
19:39 86.7 °F 76.6 °F 30.01 in East 2.0 mph 10.0 mph 72 % 0.00 in
19:44 86.5 °F 76.5 °F 30.01 in ENE 1.0 mph 10.0 mph 72 % 0.00 in
19:49 86.2 °F 76.5 °F 30.01 in NNW 2.0 mph 9.0 mph 73 % 0.00 in
19:54 85.8 °F 76.6 °F 30.01 in ENE 5.0 mph 10.0 mph 74 % 0.00 in
19:59 85.6 °F 76.5 °F 30.02 in ENE 2.0 mph 10.0 mph 74 % 0.00 in
20:02 85.5 °F 76.6 °F 30.02 in NE 5.0 mph 10.0 mph 75 % 0.00 in
20:07 85.3 °F 76.8 °F 30.02 in East 4.0 mph 8.0 mph 76 % 0.00 in
20:12 84.9 °F 76.5 °F 30.02 in Calm   9.0 mph 76 % 0.00 in
20:17 84.7 °F 76.6 °F 30.03 in SE 2.0 mph 9.0 mph 77 % 0.00 in
20:22 84.6 °F 76.5 °F 30.03 in ENE 1.0 mph 9.0 mph 77 % 0.00 in
20:27 84.4 °F 76.5 °F 30.03 in ENE 3.0 mph 6.0 mph 77 % 0.00 in
20:32 84.4 °F 76.8 °F 30.03 in Calm   6.0 mph 78 % 0.00 in
20:37 84.0 °F 76.5 °F 30.03 in ESE 3.0 mph 6.0 mph 78 % 0.00 in
20:42 84.0 °F 76.8 °F 30.03 in Calm   6.0 mph 79 % 0.00 in
20:47 83.8 °F 76.6 °F 30.03 in Calm   6.0 mph 79 % 0.00 in
20:52 83.7 °F 76.5 °F 30.03 in Calm   6.0 mph 79 % 0.00 in
20:55 83.7 °F 76.5 °F 30.03 in Calm   4.0 mph 79 % 0.00 in
21:00 83.5 °F 76.6 °F 30.03 in East 1.0 mph 4.0 mph 80 % 0.00 in
21:05 83.5 °F 76.6 °F 30.03 in East 1.0 mph 4.0 mph 80 % 0.00 in
21:10 83.5 °F 77.0 °F 30.03 in Calm   4.0 mph 81 % 0.00 in
21:15 83.3 °F 76.8 °F 30.03 in Calm   3.0 mph 81 % 0.00 in
21:20 83.1 °F 76.6 °F 30.03 in Calm   3.0 mph 81 % 0.00 in
21:25 83.1 °F 76.6 °F 30.04 in Calm   3.0 mph 81 % 0.00 in
21:30 83.1 °F 76.6 °F 30.04 in Calm   3.0 mph 81 % 0.00 in
21:35 82.9 °F 76.5 °F 30.04 in Calm   3.0 mph 81 % 0.00 in
21:40 83.1 °F 76.6 °F 30.04 in Calm   3.0 mph 81 % 0.00 in
21:45 83.1 °F 76.6 °F 30.04 in ESE 1.0 mph 3.0 mph 81 % 0.00 in
21:50 83.1 °F 76.6 °F 30.04 in SE 1.0 mph 4.0 mph 81 % 0.00 in
21:55 83.1 °F 76.6 °F 30.05 in ENE 1.0 mph 4.0 mph 81 % 0.00 in
22:00 83.1 °F 76.6 °F 30.05 in Calm   4.0 mph 81 % 0.00 in
22:05 82.9 °F 76.5 °F 30.05 in Calm   2.0 mph 81 % 0.00 in
22:10 82.9 °F 76.5 °F 30.06 in SE 1.0 mph 2.0 mph 81 % 0.00 in
22:16 82.9 °F 76.5 °F 30.06 in SE 1.0 mph 2.0 mph 81 % 0.00 in
22:21 82.9 °F 76.5 °F 30.06 in Calm   4.0 mph 81 % 0.00 in
22:24 82.9 °F 76.1 °F 30.06 in SE 1.0 mph 4.0 mph 80 % 0.00 in
22:25 82.9 °F 76.1 °F 30.06 in SE 1.0 mph 4.0 mph 80 % 0.00 in
22:29 82.9 °F 76.1 °F 30.06 in Calm   4.0 mph 80 % 0.00 in
22:34 82.9 °F 76.5 °F 30.06 in ESE 2.0 mph 4.0 mph 81 % 0.00 in
22:39 82.9 °F 76.5 °F 30.06 in Calm   2.0 mph 81 % 0.00 in
22:44 82.9 °F 76.5 °F 30.06 in East 1.0 mph 2.0 mph 81 % 0.00 in
22:49 82.9 °F 76.5 °F 30.06 in Calm   2.0 mph 81 % 0.00 in
22:54 82.8 °F 76.3 °F 30.07 in Calm   2.0 mph 81 % 0.00 in
22:59 82.8 °F 76.3 °F 30.07 in Calm   2.0 mph 81 % 0.00 in
23:04 82.8 °F 76.3 °F 30.06 in ESE 1.0 mph 2.0 mph 81 % 0.00 in
23:09 82.6 °F 76.1 °F 30.06 in Calm   2.0 mph 81 % 0.00 in
23:14 82.6 °F 76.1 °F 30.06 in Calm   2.0 mph 81 % 0.00 in
23:19 82.6 °F 76.5 °F 30.06 in Calm   2.0 mph 82 % 0.00 in
23:24 82.4 °F 76.3 °F 30.06 in Calm   2.0 mph 82 % 0.00 in
23:29 82.2 °F 76.1 °F 30.06 in Calm   2.0 mph 82 % 0.00 in
23:34 82.0 °F 76.3 °F 30.06 in Calm   1.0 mph 83 % 0.00 in
23:39 82.0 °F 76.3 °F 30.06 in Calm   1.0 mph 83 % 0.00 in
23:44 81.9 °F 76.1 °F 30.06 in Calm   1.0 mph 83 % 0.00 in
23:49 81.7 °F 75.9 °F 30.06 in Calm   1.0 mph 83 % 0.00 in
23:54 81.5 °F 75.9 °F 30.06 in Calm   1.0 mph 83 % 0.00 in
23:59 81.3 °F 76.1 °F 30.06 in Calm     84 % 0.00 in
Spring, Texas: Villages of Bridgestone
Compliments of Weather Underground - 2.75 mb

Script developed by  Jim McMurry - jmcmurry@mwt.net Adapted for the template by  Wim van der Kuil - Leuven-Template.eu

You find our weather info also at:

UK Metoffice

WeatherCloud

Weather Underground

Mid-South Weather Network

AWEKAS

Citizen Weather Observer Program (CWOP)

HAMweather, WeatherForYou, PWS Weather

Equipment we use:

Weather-station
Davis Vantage Vue

Weather-program
Meteohub

Weather-server
Debian 7.9 x86 (Guest)

Provider
DreamHost

Davis Vantage Vue

Meteohub

Debian 7.9 x86 (Guest)

DreamHost